Time;durP1;ratioP1;P1;durP2;ratioP2;P2;SDS_P1;SDS_P2;PMS_P1;PMS_P2;Temp;Humidity;BMP_temperature;BMP_pressure;BME280_temperature;BME280_humidity;BME280_pressure;Samples;Min_cycle;Max_cycle;Signal;HPM_P1;HPM_P2
2024/02/25 00:01:30;;;;;;;4.07;1.65;;;5.00;99.90;;;;;;5048139;28;20074;-67
2024/02/25 00:03:55;;;;;;;4.82;1.52;;;5.00;99.90;;;;;;5064307;28;20375;-67
2024/02/25 00:06:21;;;;;;;4.32;1.30;;;5.00;99.90;;;;;;5064740;28;20036;-67
2024/02/25 00:08:47;;;;;;;3.33;1.52;;;5.00;99.90;;;;;;5051211;28;20185;-67
2024/02/25 00:11:12;;;;;;;2.92;1.10;;;5.00;99.90;;;;;;5046078;28;20044;-67
2024/02/25 00:13:38;;;;;;;4.88;1.35;;;5.00;99.90;;;;;;5064553;28;20036;-67
2024/02/25 00:16:04;;;;;;;4.35;1.20;;;5.00;99.90;;;;;;5065661;28;20032;-67
2024/02/25 00:18:30;;;;;;;2.83;1.73;;;5.10;99.90;;;;;;5045855;28;20119;-67
2024/02/25 00:20:55;;;;;;;6.25;2.25;;;5.00;99.90;;;;;;5064147;28;20171;-67
2024/02/25 00:23:21;;;;;;;2.60;1.30;;;5.00;99.90;;;;;;5065049;28;20040;-67
2024/02/25 00:25:47;;;;;;;4.75;1.33;;;5.00;99.90;;;;;;5068071;28;20033;-67
2024/02/25 00:28:13;;;;;;;3.10;1.30;;;5.00;99.90;;;;;;5047942;28;20048;-68
2024/02/25 00:30:38;;;;;;;2.85;1.52;;;5.00;99.90;;;;;;5050280;28;20523;-67
2024/02/25 00:33:04;;;;;;;1.63;0.93;;;5.00;99.90;;;;;;5065160;28;20029;-67
2024/02/25 00:35:30;;;;;;;3.90;1.48;;;4.90;99.90;;;;;;5052556;28;20049;-67
2024/02/25 00:37:55;;;;;;;2.13;1.20;;;5.00;99.90;;;;;;5049292;28;20648;-67
2024/02/25 00:40:21;;;;;;;6.10;1.80;;;5.00;99.90;;;;;;5050419;28;20032;-67
2024/02/25 00:42:46;;;;;;;4.10;1.50;;;4.90;99.90;;;;;;5050229;28;20113;-67
2024/02/25 00:45:12;;;;;;;3.60;1.13;;;5.00;99.90;;;;;;5052038;28;21240;-67
2024/02/25 00:47:38;;;;;;;1.90;1.00;;;5.00;99.90;;;;;;5047598;28;20044;-67
2024/02/25 00:50:05;;;;;;;1.90;0.90;;;5.00;99.90;;;;;;5063401;28;20039;-67
2024/02/25 00:52:33;;;;;;;4.57;1.40;;;5.00;99.90;;;;;;5064646;28;20497;-67
2024/02/25 00:54:59;;;;;;;3.20;1.20;;;5.00;99.90;;;;;;5044764;28;20051;-67
2024/02/25 00:57:25;;;;;;;2.80;1.33;;;5.00;99.90;;;;;;5044677;28;20127;-67
2024/02/25 00:59:50;;;;;;;3.35;1.40;;;5.00;99.90;;;;;;5065703;28;20131;-67
2024/02/25 01:02:16;;;;;;;3.97;1.40;;;5.00;99.90;;;;;;5052641;28;20050;-67
2024/02/25 01:04:42;;;;;;;3.75;1.58;;;4.90;99.90;;;;;;5048463;28;20189;-67
2024/02/25 01:07:07;;;;;;;3.05;1.27;;;5.00;99.90;;;;;;5047609;28;20048;-67
2024/02/25 01:09:33;;;;;;;3.33;1.52;;;5.00;99.90;;;;;;5049239;28;20044;-67
2024/02/25 01:11:59;;;;;;;3.97;2.00;;;5.00;99.90;;;;;;5065027;28;20052;-67
2024/02/25 01:14:24;;;;;;;3.88;1.92;;;4.90;99.90;;;;;;5046567;28;20036;-67
2024/02/25 01:16:50;;;;;;;3.17;1.90;;;4.90;99.90;;;;;;5046675;28;20044;-67
2024/02/25 01:19:20;;;;;;;4.47;1.83;;;4.90;99.90;;;;;;5044927;28;20053;-68
2024/02/25 01:21:47;;;;;;;5.07;1.90;;;4.90;99.90;;;;;;5045343;28;20490;-67
2024/02/25 01:24:12;;;;;;;3.42;1.70;;;4.90;99.90;;;;;;5049035;28;20505;-67
2024/02/25 01:26:41;;;;;;;4.95;2.25;;;4.90;99.90;;;;;;5050261;28;20116;-67
2024/02/25 01:29:10;;;;;;;3.80;1.80;;;5.20;99.90;;;;;;5046455;28;20132;-67
2024/02/25 01:31:46;;;;;;;5.63;2.10;;;4.90;99.90;;;;;;5077668;28;20033;-67
2024/02/25 01:34:12;;;;;;;6.53;2.00;;;5.00;99.90;;;;;;5035972;28;20047;-67
2024/02/25 01:36:41;;;;;;;4.68;2.05;;;4.90;99.90;;;;;;5044850;28;20037;-67
2024/02/25 01:39:08;;;;;;;4.82;1.77;;;4.90;99.90;;;;;;5045861;28;20033;-67
2024/02/25 01:41:33;;;;;;;3.97;1.70;;;5.00;99.90;;;;;;5047339;28;20094;-67
2024/02/25 01:43:59;;;;;;;4.10;1.77;;;4.90;99.90;;;;;;5044385;28;20049;-67
2024/02/25 01:46:24;;;;;;;6.13;2.17;;;5.00;99.90;;;;;;5047624;28;20048;-67
2024/02/25 01:48:51;;;;;;;3.35;1.90;;;5.00;99.90;;;;;;5044905;28;20055;-67
2024/02/25 01:51:18;;;;;;;2.35;1.58;;;5.30;99.90;;;;;;5067344;28;20056;-67
2024/02/25 01:53:47;;;;;;;3.50;1.55;;;5.00;99.90;;;;;;5045839;28;20483;-67
2024/02/25 01:56:13;;;;;;;4.60;2.55;;;5.00;99.90;;;;;;5046014;28;20048;-67
2024/02/25 01:58:38;;;;;;;6.00;1.83;;;5.00;99.90;;;;;;5062369;28;20039;-68
2024/02/25 02:01:04;;;;;;;3.53;1.83;;;5.00;99.90;;;;;;5046041;28;20053;-67
2024/02/25 02:03:30;;;;;;;4.00;1.77;;;5.00;99.90;;;;;;5064439;28;20498;-67
2024/02/25 02:05:55;;;;;;;4.22;1.80;;;5.00;99.90;;;;;;5048036;28;20044;-67
2024/02/25 02:08:21;;;;;;;4.57;1.55;;;5.00;99.90;;;;;;5076818;28;20109;-67
2024/02/25 02:10:47;;;;;;;2.78;1.80;;;5.00;99.90;;;;;;5046365;28;20048;-67
2024/02/25 02:13:12;;;;;;;3.00;1.35;;;5.10;99.90;;;;;;5045992;28;20044;-67
2024/02/25 02:15:39;;;;;;;4.10;1.42;;;5.00;99.90;;;;;;5045593;28;20052;-67
2024/02/25 02:18:06;;;;;;;3.95;1.40;;;5.10;99.90;;;;;;5047748;28;20174;-67
2024/02/25 02:20:32;;;;;;;2.63;1.05;;;5.10;99.90;;;;;;5044740;28;20045;-67
2024/02/25 02:22:58;;;;;;;2.75;1.05;;;5.20;99.90;;;;;;5043188;28;20037;-68
2024/02/25 02:25:23;;;;;;;3.75;1.50;;;5.10;99.90;;;;;;5047022;28;20044;-67
2024/02/25 02:27:49;;;;;;;3.17;1.42;;;5.10;99.90;;;;;;5046964;28;20094;-67
2024/02/25 02:30:15;;;;;;;3.30;1.40;;;5.10;99.90;;;;;;5052457;28;20036;-67
2024/02/25 02:32:41;;;;;;;3.42;1.10;;;5.10;99.90;;;;;;5049006;28;20498;-67
2024/02/25 02:35:07;;;;;;;2.28;1.08;;;5.20;99.90;;;;;;5067881;28;20078;-67
2024/02/25 02:37:33;;;;;;;4.00;1.30;;;5.10;99.90;;;;;;5083038;28;20475;-67
2024/02/25 02:39:59;;;;;;;3.35;1.52;;;5.10;99.90;;;;;;5047462;28;20131;-67
2024/02/25 02:42:25;;;;;;;4.13;1.38;;;5.20;99.90;;;;;;5054854;28;20041;-67
2024/02/25 02:44:51;;;;;;;3.47;1.38;;;5.10;99.90;;;;;;5066594;28;20131;-67
2024/02/25 02:47:23;;;;;;;2.83;1.13;;;5.10;99.90;;;;;;5049991;28;20758;-67
2024/02/25 02:49:50;;;;;;;4.38;1.50;;;5.10;99.90;;;;;;5035832;28;20064;-67
2024/02/25 02:52:16;;;;;;;4.22;1.60;;;5.10;99.90;;;;;;5067751;28;20041;-67
2024/02/25 02:54:43;;;;;;;2.67;1.00;;;5.10;99.90;;;;;;5046064;28;20102;-68
2024/02/25 02:57:08;;;;;;;2.47;1.20;;;5.10;99.90;;;;;;5051920;28;20029;-67
2024/02/25 02:59:34;;;;;;;4.78;1.50;;;5.10;99.90;;;;;;5047087;28;20493;-67
2024/02/25 03:02:00;;;;;;;2.28;0.90;;;5.10;99.90;;;;;;5049799;28;20044;-67
2024/02/25 03:04:30;;;;;;;10.45;2.08;;;5.10;99.90;;;;;;5066987;28;20044;-67
2024/02/25 03:06:56;;;;;;;3.90;1.00;;;5.10;99.90;;;;;;5086396;28;20561;-67
2024/02/25 03:09:22;;;;;;;3.97;1.13;;;5.10;99.90;;;;;;5066746;28;20032;-67
2024/02/25 03:11:48;;;;;;;2.08;1.00;;;5.10;99.90;;;;;;5049698;28;20582;-67
2024/02/25 03:14:13;;;;;;;2.50;1.00;;;5.10;99.90;;;;;;5053468;28;20120;-67
2024/02/25 03:16:39;;;;;;;2.50;1.00;;;5.00;99.90;;;;;;5051209;28;20040;-67
2024/02/25 03:19:05;;;;;;;3.80;1.08;;;5.10;99.90;;;;;;5033210;28;20111;-67
2024/02/25 03:21:30;;;;;;;2.45;1.00;;;5.10;99.90;;;;;;5065765;28;20390;-67
2024/02/25 03:23:56;;;;;;;3.90;1.15;;;5.10;99.90;;;;;;5048620;28;20044;-67
2024/02/25 03:26:21;;;;;;;1.88;1.15;;;5.10;99.90;;;;;;5068210;28;20071;-67
2024/02/25 03:28:47;;;;;;;2.78;1.35;;;5.10;99.90;;;;;;5048025;28;20041;-67
2024/02/25 03:31:13;;;;;;;3.28;0.90;;;5.10;99.90;;;;;;5066672;28;20032;-68
2024/02/25 03:33:39;;;;;;;2.65;1.05;;;5.00;99.90;;;;;;5050965;28;21378;-67
2024/02/25 03:36:05;;;;;;;1.77;0.95;;;5.00;99.90;;;;;;5048689;28;20036;-68
2024/02/25 03:38:31;;;;;;;3.97;0.95;;;5.00;99.90;;;;;;5045395;28;20055;-67
2024/02/25 03:40:56;;;;;;;3.38;0.90;;;5.00;99.90;;;;;;5065530;28;20079;-67
2024/02/25 03:43:22;;;;;;;1.63;0.70;;;5.10;99.90;;;;;;5047334;28;20681;-67
2024/02/25 03:45:48;;;;;;;1.90;1.00;;;5.10;99.90;;;;;;5048592;28;20032;-67
2024/02/25 03:48:14;;;;;;;2.53;1.65;;;5.00;99.90;;;;;;5049690;28;20063;-67
2024/02/25 03:50:39;;;;;;;2.15;0.80;;;5.10;99.90;;;;;;5065211;28;20129;-67
2024/02/25 03:53:05;;;;;;;2.15;1.10;;;5.00;99.90;;;;;;5047844;28;20040;-67
2024/02/25 03:55:31;;;;;;;3.83;1.40;;;5.00;99.90;;;;;;5049113;28;20036;-67
2024/02/25 03:57:58;;;;;;;3.85;1.00;;;5.00;99.90;;;;;;5063928;28;20079;-67
2024/02/25 04:00:24;;;;;;;2.63;1.00;;;5.10;99.90;;;;;;5047139;28;20044;-67
2024/02/25 04:02:50;;;;;;;2.30;1.00;;;5.00;99.90;;;;;;5063789;28;20036;-67
2024/02/25 04:05:17;;;;;;;2.13;1.20;;;5.00;99.90;;;;;;5045804;28;20037;-67
2024/02/25 04:07:43;;;;;;;1.63;0.80;;;5.10;99.90;;;;;;5050333;28;20074;-67
2024/02/25 04:10:10;;;;;;;3.60;1.30;;;5.00;99.90;;;;;;5061205;28;20028;-68
2024/02/25 04:12:36;;;;;;;4.20;1.30;;;5.00;99.90;;;;;;5049625;28;20364;-67
2024/02/25 04:15:02;;;;;;;2.78;1.00;;;5.00;99.90;;;;;;5046805;28;20044;-67
2024/02/25 04:17:29;;;;;;;2.88;1.55;;;5.10;99.90;;;;;;5069819;28;20115;-67
2024/02/25 04:19:56;;;;;;;6.78;3.05;;;5.10;99.90;;;;;;5043502;28;20521;-67
2024/02/25 04:22:22;;;;;;;4.00;1.48;;;5.10;99.90;;;;;;5051380;28;20044;-67
2024/02/25 04:24:48;;;;;;;2.70;1.63;;;5.10;99.90;;;;;;5065444;28;20522;-67
2024/02/25 04:27:14;;;;;;;2.45;1.70;;;5.00;99.90;;;;;;5051777;28;20068;-67
2024/02/25 04:29:43;;;;;;;3.50;2.03;;;5.00;99.90;;;;;;5062815;28;20036;-67
2024/02/25 04:32:09;;;;;;;2.08;1.73;;;4.70;99.90;;;;;;5066159;28;20383;-67
2024/02/25 04:34:35;;;;;;;2.65;1.95;;;5.10;99.90;;;;;;5048243;28;20037;-67
2024/02/25 04:37:01;;;;;;;4.30;1.80;;;5.00;99.90;;;;;;5049461;28;20033;-67
2024/02/25 04:39:27;;;;;;;2.55;1.98;;;5.00;99.90;;;;;;5037230;28;20078;-68
2024/02/25 04:41:53;;;;;;;4.25;1.73;;;5.00;99.90;;;;;;5067189;28;20207;-67
2024/02/25 04:44:19;;;;;;;3.00;2.33;;;5.00;99.90;;;;;;5044082;28;20048;-68
2024/02/25 04:46:44;;;;;;;3.83;2.30;;;5.00;99.90;;;;;;5046614;28;20224;-67
2024/02/25 04:49:11;;;;;;;3.42;2.03;;;5.00;99.90;;;;;;5041842;28;20044;-67
2024/02/25 04:51:37;;;;;;;3.33;2.75;;;5.00;99.90;;;;;;5065083;28;20044;-67
2024/02/25 04:54:03;;;;;;;3.38;2.53;;;5.00;99.90;;;;;;5062196;28;20654;-67
2024/02/25 04:56:29;;;;;;;3.33;2.50;;;5.00;99.90;;;;;;5064897;28;20098;-67
2024/02/25 04:58:55;;;;;;;4.45;2.70;;;5.00;99.90;;;;;;5043993;28;20404;-67
2024/02/25 05:01:21;;;;;;;2.75;2.20;;;5.00;99.90;;;;;;5063476;28;20035;-67
2024/02/25 05:03:46;;;;;;;2.78;2.50;;;5.00;99.90;;;;;;5044305;28;20049;-67
2024/02/25 05:06:13;;;;;;;2.90;2.70;;;5.00;99.90;;;;;;5044643;28;20478;-67
2024/02/25 05:08:38;;;;;;;3.53;2.53;;;5.00;99.90;;;;;;5063727;28;20048;-67
2024/02/25 05:11:04;;;;;;;3.97;3.17;;;5.00;99.90;;;;;;5042889;28;20048;-67
2024/02/25 05:13:30;;;;;;;3.35;2.83;;;5.10;99.90;;;;;;5043314;28;20044;-67
2024/02/25 05:15:56;;;;;;;3.22;2.67;;;5.00;99.90;;;;;;5043722;28;20036;-68
2024/02/25 05:18:22;;;;;;;5.95;2.90;;;5.00;99.90;;;;;;5045843;28;20040;-67
2024/02/25 05:20:48;;;;;;;3.20;3.00;;;5.40;99.90;;;;;;5044200;28;20048;-67
2024/02/25 05:23:14;;;;;;;3.63;3.03;;;5.00;99.90;;;;;;5041554;28;20505;-67
2024/02/25 05:25:39;;;;;;;6.22;3.03;;;5.00;99.90;;;;;;5059625;28;20037;-68
2024/02/25 05:28:06;;;;;;;5.85;3.13;;;5.00;99.90;;;;;;5043855;28;20047;-68
2024/02/25 05:30:32;;;;;;;6.20;3.45;;;4.90;99.90;;;;;;5074750;28;20498;-68
2024/02/25 05:32:58;;;;;;;5.72;3.72;;;5.00;99.90;;;;;;5042550;28;20039;-67
2024/02/25 05:35:24;;;;;;;6.78;3.55;;;5.00;99.90;;;;;;5060018;28;20028;-67
2024/02/25 05:37:49;;;;;;;5.65;3.60;;;5.00;99.90;;;;;;5060680;28;20028;-68
2024/02/25 05:40:16;;;;;;;4.65;3.85;;;5.00;99.90;;;;;;5062290;28;20040;-67
2024/02/25 05:42:41;;;;;;;8.82;3.75;;;5.00;99.90;;;;;;5044298;28;20075;-67
2024/02/25 05:45:08;;;;;;;7.82;4.13;;;5.00;99.90;;;;;;5031242;28;20083;-67
2024/02/25 05:47:34;;;;;;;13.15;4.97;;;5.00;99.90;;;;;;5038915;28;20033;-68
2024/02/25 05:49:59;;;;;;;6.43;4.50;;;5.00;99.90;;;;;;5043135;28;20052;-68
2024/02/25 05:52:25;;;;;;;7.85;4.15;;;5.00;99.90;;;;;;5068198;28;20406;-68
2024/02/25 05:54:51;;;;;;;6.78;3.80;;;5.00;99.90;;;;;;5045550;28;20044;-67
2024/02/25 05:57:16;;;;;;;4.55;3.50;;;5.00;99.90;;;;;;5049673;28;20051;-67
2024/02/25 05:59:46;;;;;;;5.20;4.68;;;5.00;99.90;;;;;;5062545;28;20028;-67
2024/02/25 06:02:12;;;;;;;4.93;4.00;;;5.00;99.90;;;;;;5045125;28;20099;-67
2024/02/25 06:04:38;;;;;;;4.78;4.03;;;5.10;99.90;;;;;;5039779;28;20090;-67
2024/02/25 06:07:04;;;;;;;5.32;4.10;;;5.10;99.90;;;;;;5049091;28;20143;-67
2024/02/25 06:09:30;;;;;;;5.88;3.60;;;5.10;99.90;;;;;;5061073;28;20131;-67
2024/02/25 06:11:55;;;;;;;4.30;3.75;;;5.10;99.90;;;;;;5052919;28;20040;-67
2024/02/25 06:14:21;;;;;;;5.28;3.70;;;5.10;99.90;;;;;;5049122;28;20600;-67
2024/02/25 06:16:46;;;;;;;6.45;3.65;;;5.10;99.90;;;;;;5048141;28;20043;-67
2024/02/25 06:19:12;;;;;;;4.78;3.30;;;5.10;99.90;;;;;;5047888;28;20103;-67
2024/02/25 06:21:43;;;;;;;4.50;3.63;;;5.00;99.90;;;;;;5064682;28;20029;-68
2024/02/25 06:24:09;;;;;;;4.10;3.42;;;5.10;99.90;;;;;;5045641;28;20056;-67
2024/02/25 06:26:34;;;;;;;4.20;2.60;;;5.10;99.90;;;;;;5045886;28;20040;-67
2024/02/25 06:29:00;;;;;;;5.07;3.22;;;5.10;99.90;;;;;;5041503;28;20052;-67
2024/02/25 06:31:29;;;;;;;3.42;3.13;;;5.10;99.90;;;;;;5059877;28;20040;-67
2024/02/25 06:33:55;;;;;;;5.28;3.47;;;5.10;99.90;;;;;;5046698;28;20121;-67
2024/02/25 06:36:21;;;;;;;4.65;2.70;;;5.10;99.90;;;;;;5045371;28;20514;-67
2024/02/25 06:38:47;;;;;;;3.65;3.05;;;5.20;99.90;;;;;;5059837;28;20041;-67
2024/02/25 06:41:20;;;;;;;3.85;3.00;;;5.10;99.90;;;;;;5059674;28;20032;-67
2024/02/25 06:43:46;;;;;;;3.50;3.20;;;5.20;99.90;;;;;;5056625;28;20028;-67
2024/02/25 06:46:11;;;;;;;3.15;2.78;;;5.20;99.90;;;;;;5059854;28;20506;-67
2024/02/25 06:48:37;;;;;;;4.35;2.75;;;5.20;99.90;;;;;;5062659;28;20106;-67
2024/02/25 06:51:03;;;;;;;2.92;2.00;;;5.20;99.90;;;;;;5053595;28;20045;-67
2024/02/25 06:53:30;;;;;;;2.80;2.40;;;5.20;99.90;;;;;;5060347;28;20487;-67
2024/02/25 06:55:56;;;;;;;4.72;2.50;;;5.20;99.90;;;;;;5056842;28;20397;-67
2024/02/25 06:58:22;;;;;;;2.67;2.47;;;5.20;99.90;;;;;;5057564;28;20046;-67
2024/02/25 07:00:48;;;;;;;2.70;2.20;;;5.20;99.90;;;;;;5042036;28;20036;-67
2024/02/25 07:03:13;;;;;;;3.40;2.60;;;5.30;99.90;;;;;;5060513;28;20032;-67
2024/02/25 07:05:42;;;;;;;2.50;2.10;;;5.30;99.90;;;;;;5043950;28;20070;-67
2024/02/25 07:08:07;;;;;;;2.53;1.92;;;5.30;99.90;;;;;;5038342;28;20419;-68
2024/02/25 07:10:33;;;;;;;2.47;2.10;;;5.30;99.90;;;;;;5055911;28;20044;-67
2024/02/25 07:12:59;;;;;;;2.70;1.65;;;5.30;99.90;;;;;;5041512;28;20041;-67
2024/02/25 07:15:24;;;;;;;2.03;1.88;;;5.30;99.90;;;;;;5040918;28;20041;-67
2024/02/25 07:17:52;;;;;;;2.63;2.08;;;5.30;99.90;;;;;;5054001;28;20586;-67
2024/02/25 07:20:19;;;;;;;2.05;1.85;;;5.30;99.90;;;;;;5048944;28;20045;-67
2024/02/25 07:22:45;;;;;;;2.00;1.80;;;5.40;99.90;;;;;;5042362;28;20040;-67
2024/02/25 07:25:10;;;;;;;4.13;1.75;;;5.40;99.90;;;;;;5040619;28;20071;-67
2024/02/25 07:27:36;;;;;;;2.97;2.22;;;5.40;99.90;;;;;;5046254;28;20037;-68
2024/02/25 07:30:02;;;;;;;2.65;2.15;;;5.40;99.90;;;;;;5033114;28;20048;-68
2024/02/25 07:32:27;;;;;;;2.60;1.90;;;5.40;99.90;;;;;;5066987;28;20116;-67
2024/02/25 07:34:53;;;;;;;2.08;1.70;;;5.40;99.90;;;;;;5045467;28;20037;-67
2024/02/25 07:37:18;;;;;;;2.03;1.77;;;5.40;99.90;;;;;;5064261;28;20064;-68
2024/02/25 07:39:44;;;;;;;2.00;1.90;;;5.40;99.90;;;;;;5061278;28;20036;-68
2024/02/25 07:42:11;;;;;;;2.95;1.83;;;5.40;99.90;;;;;;5061432;28;20089;-67
2024/02/25 07:44:37;;;;;;;3.47;1.95;;;5.40;99.90;;;;;;5043052;28;20399;-68
2024/02/25 07:47:02;;;;;;;2.05;1.80;;;5.40;99.90;;;;;;5043122;28;20041;-68
2024/02/25 07:49:28;;;;;;;2.42;2.08;;;5.40;99.90;;;;;;5043773;28;20134;-68
2024/02/25 07:51:54;;;;;;;4.80;2.20;;;5.40;99.90;;;;;;5059418;28;20033;-68
2024/02/25 07:54:19;;;;;;;3.08;2.08;;;5.40;99.90;;;;;;5051328;28;20075;-68
2024/02/25 07:56:45;;;;;;;2.67;2.47;;;5.50;99.90;;;;;;5041709;28;20037;-68
2024/02/25 07:59:11;;;;;;;2.67;2.47;;;5.40;99.90;;;;;;5050234;28;20450;-68
2024/02/25 08:01:36;;;;;;;5.70;2.78;;;5.40;99.90;;;;;;5061997;28;20440;-68
2024/02/25 08:04:03;;;;;;;2.78;2.10;;;5.40;99.90;;;;;;5048325;28;20059;-68
2024/02/25 08:06:28;;;;;;;2.40;2.20;;;5.50;99.90;;;;;;5067602;28;20364;-68
2024/02/25 08:08:54;;;;;;;3.38;2.22;;;5.50;99.90;;;;;;5044254;28;20052;-68
2024/02/25 08:11:20;;;;;;;2.50;2.30;;;5.60;99.90;;;;;;5063238;28;20897;-68
2024/02/25 08:13:46;;;;;;;2.75;2.55;;;5.60;99.90;;;;;;5065094;28;20037;-68
2024/02/25 08:16:12;;;;;;;2.90;2.70;;;5.60;99.90;;;;;;5065423;28;20056;-68
2024/02/25 08:18:42;;;;;;;2.67;2.47;;;5.60;99.90;;;;;;5060836;28;20079;-67
2024/02/25 08:21:08;;;;;;;3.05;2.83;;;5.70;99.90;;;;;;5046108;28;20048;-67
2024/02/25 08:23:33;;;;;;;3.08;2.78;;;5.70;99.90;;;;;;5064320;28;20036;-68
2024/02/25 08:25:59;;;;;;;3.30;2.90;;;5.70;99.90;;;;;;5076743;28;20044;-68
2024/02/25 08:28:25;;;;;;;3.15;2.85;;;5.80;99.90;;;;;;5048980;28;20518;-68
2024/02/25 08:30:51;;;;;;;3.08;2.88;;;5.80;99.90;;;;;;5059448;28;20526;-67
2024/02/25 08:33:16;;;;;;;2.88;2.67;;;5.80;99.90;;;;;;5053670;28;20055;-67
2024/02/25 08:35:42;;;;;;;3.22;2.83;;;5.80;99.90;;;;;;5063036;28;20437;-67
2024/02/25 08:38:08;;;;;;;2.75;2.50;;;5.90;99.90;;;;;;5047403;28;20033;-67
2024/02/25 08:40:33;;;;;;;3.63;2.90;;;5.80;99.90;;;;;;5043537;28;20037;-67
2024/02/25 08:42:59;;;;;;;3.42;3.13;;;5.90;99.90;;;;;;5058505;28;20033;-67
2024/02/25 08:45:25;;;;;;;4.63;2.92;;;5.90;99.90;;;;;;5045930;28;20029;-67
2024/02/25 08:47:51;;;;;;;3.00;2.80;;;5.90;99.90;;;;;;5045100;28;20032;-68
2024/02/25 08:50:16;;;;;;;3.50;3.30;;;5.90;99.90;;;;;;5042698;28;20098;-68
2024/02/25 08:52:42;;;;;;;3.67;3.38;;;5.90;99.90;;;;;;5029487;28;20080;-67
2024/02/25 08:55:08;;;;;;;3.35;3.05;;;6.00;99.90;;;;;;5043896;28;20135;-67
2024/02/25 08:57:34;;;;;;;3.47;3.20;;;6.00;99.90;;;;;;5047204;28;20045;-67
2024/02/25 08:59:59;;;;;;;3.40;3.10;;;6.00;99.90;;;;;;5062623;28;20559;-68
2024/02/25 09:02:25;;;;;;;3.20;3.00;;;6.00;99.90;;;;;;5049842;28;20071;-68
2024/02/25 09:04:51;;;;;;;3.10;2.90;;;6.00;99.90;;;;;;5046586;28;20048;-68
2024/02/25 09:07:17;;;;;;;3.13;2.92;;;6.00;99.90;;;;;;5058069;28;20037;-68
2024/02/25 09:09:43;;;;;;;2.83;2.63;;;6.10;99.90;;;;;;5061493;28;20112;-69
2024/02/25 09:12:13;;;;;;;2.85;2.65;;;6.10;99.90;;;;;;5047078;28;20048;-68
2024/02/25 09:14:42;;;;;;;3.47;3.17;;;6.10;99.90;;;;;;5063976;28;20044;-68
2024/02/25 09:17:08;;;;;;;3.10;2.90;;;6.20;99.90;;;;;;5058641;28;20047;-67
2024/02/25 09:19:33;;;;;;;3.67;3.38;;;6.10;99.90;;;;;;5061240;28;20048;-67
2024/02/25 09:21:59;;;;;;;3.65;3.35;;;6.20;99.90;;;;;;5059840;28;20036;-67
2024/02/25 09:24:28;;;;;;;3.47;3.17;;;6.20;99.90;;;;;;5062002;28;20102;-67
2024/02/25 09:26:54;;;;;;;3.92;3.33;;;6.20;99.90;;;;;;5044505;28;20047;-67
2024/02/25 09:29:20;;;;;;;3.78;3.47;;;6.20;99.90;;;;;;5042378;28;20040;-67
2024/02/25 09:31:46;;;;;;;3.15;2.95;;;6.30;99.90;;;;;;5041833;28;20049;-67
2024/02/25 09:34:12;;;;;;;3.50;3.22;;;6.30;99.90;;;;;;5060064;28;20066;-67
2024/02/25 09:36:38;;;;;;;3.75;3.40;;;6.30;99.90;;;;;;5025522;28;20045;-67
2024/02/25 09:39:04;;;;;;;3.92;3.63;;;6.20;99.90;;;;;;5041029;28;20043;-67
2024/02/25 09:41:37;;;;;;;4.07;3.72;;;6.40;99.90;;;;;;5061112;28;20029;-67
2024/02/25 09:44:04;;;;;;;4.78;4.15;;;6.40;99.90;;;;;;5060439;28;20477;-67
2024/02/25 09:46:32;;;;;;;4.88;4.15;;;6.40;99.90;;;;;;5060752;28;20116;-67
2024/02/25 09:48:58;;;;;;;4.35;3.95;;;6.50;99.90;;;;;;5062216;28;20399;-67
2024/02/25 09:51:24;;;;;;;4.20;3.90;;;6.50;99.90;;;;;;5056682;28;21287;-67
2024/02/25 09:53:52;;;;;;;4.35;3.95;;;6.60;99.90;;;;;;5062115;28;20037;-67
2024/02/25 09:56:21;;;;;;;4.97;4.57;;;6.60;99.90;;;;;;5060355;28;20041;-67
2024/02/25 09:58:48;;;;;;;4.13;3.83;;;6.60;99.90;;;;;;5060043;28;20032;-67
2024/02/25 10:01:14;;;;;;;4.57;4.28;;;6.70;99.90;;;;;;5062490;28;20099;-67
2024/02/25 10:03:41;;;;;;;4.40;4.10;;;6.90;99.90;;;;;;5041275;28;20044;-67
2024/02/25 10:06:07;;;;;;;4.43;4.10;;;6.70;99.90;;;;;;5041201;28;20044;-67
2024/02/25 10:08:47;;;;;;;5.85;4.90;;;6.70;99.90;;;;;;5043106;28;20045;-67
2024/02/25 10:11:13;;;;;;;5.05;4.65;;;6.70;99.90;;;;;;5063067;28;20045;-67
2024/02/25 10:13:41;;;;;;;4.95;4.55;;;6.70;99.90;;;;;;5039014;28;20094;-67
2024/02/25 10:16:17;;;;;;;5.55;5.05;;;6.60;99.90;;;;;;5040122;28;20036;-67
2024/02/25 10:18:43;;;;;;;4.70;4.30;;;6.60;99.90;;;;;;5043043;28;20061;-68
2024/02/25 10:21:10;;;;;;;5.00;4.60;;;6.60;99.90;;;;;;5041783;28;20116;-67
2024/02/25 10:23:36;;;;;;;5.03;4.63;;;6.70;99.90;;;;;;5042708;28;20036;-67
2024/02/25 10:26:32;;;;;;;5.95;5.45;;;6.60;99.90;;;;;;5060413;28;20044;-67
2024/02/25 10:29:05;;;;;;;4.90;4.50;;;6.60;99.90;;;;;;5027510;28;20059;-68
2024/02/25 10:31:32;;;;;;;6.65;5.28;;;6.60;99.90;;;;;;5032307;28;20040;-67
2024/02/25 10:33:58;;;;;;;5.60;4.95;;;6.60;99.90;;;;;;5027258;28;20268;-67
2024/02/25 10:36:27;;;;;;;6.78;5.45;;;6.50;99.90;;;;;;5042260;28;20393;-67
2024/02/25 10:38:57;;;;;;;5.43;5.03;;;6.60;99.90;;;;;;5057785;28;20055;-68
2024/02/25 10:41:24;;;;;;;5.53;5.03;;;6.60;99.90;;;;;;5040036;28;20483;-68
2024/02/25 10:44:10;;;;;;;5.35;4.85;;;6.60;99.90;;;;;;5032249;28;20048;-67
2024/02/25 10:46:40;;;;;;;5.57;5.07;;;6.60;99.90;;;;;;5058350;28;20608;-67
2024/02/25 10:49:06;;;;;;;5.88;5.38;;;6.60;99.90;;;;;;5038311;28;20056;-68
2024/02/25 10:51:35;;;;;;;6.30;5.85;;;6.70;99.90;;;;;;5037760;28;20513;-67
2024/02/25 10:54:04;;;;;;;5.63;5.20;;;6.80;99.90;;;;;;5040005;28;20048;-67
2024/02/25 10:56:30;;;;;;;6.40;5.88;;;6.80;99.90;;;;;;5053866;28;20050;-67
2024/02/25 10:58:57;;;;;;;6.63;6.10;;;6.90;99.90;;;;;;5061531;28;20072;-67
2024/02/25 11:01:24;;;;;;;6.78;6.20;;;6.90;99.90;;;;;;5045591;28;20048;-67
2024/02/25 11:03:50;;;;;;;7.10;6.50;;;7.00;99.90;;;;;;5059932;28;20072;-67
2024/02/25 11:06:33;;;;;;;7.90;7.30;;;7.10;99.90;;;;;;5048754;28;20504;-68
2024/02/25 11:09:12;;;;;;;7.15;6.55;;;7.20;99.90;;;;;;5048886;28;20102;-67
2024/02/25 11:11:43;;;;;;;7.30;6.70;;;7.30;99.90;;;;;;5063052;28;20040;-67
2024/02/25 11:14:15;;;;;;;6.43;5.95;;;7.40;99.90;;;;;;5063277;28;20037;-67
2024/02/25 11:16:48;;;;;;;7.32;6.63;;;7.40;99.90;;;;;;5045377;28;20033;-68
2024/02/25 11:19:15;;;;;;;6.93;6.43;;;7.50;99.90;;;;;;5080994;28;20040;-67
2024/02/25 11:21:41;;;;;;;7.10;6.40;;;7.60;99.90;;;;;;5058331;28;20309;-67
2024/02/25 11:24:11;;;;;;;7.20;6.50;;;7.60;99.90;;;;;;5045407;28;20116;-67
2024/02/25 11:26:55;;;;;;;6.75;6.20;;;7.80;99.90;;;;;;5044019;28;20502;-67
2024/02/25 11:29:22;;;;;;;7.80;6.43;;;7.90;99.90;;;;;;5063247;28;20162;-68
2024/02/25 11:31:56;;;;;;;6.03;5.53;;;8.00;99.90;;;;;;5046620;28;20040;-67
2024/02/25 11:34:27;;;;;;;6.40;5.90;;;8.20;99.90;;;;;;5046684;28;20068;-67
2024/02/25 11:36:58;;;;;;;6.40;5.88;;;8.20;99.90;;;;;;5044686;28;20056;-67
2024/02/25 11:39:26;;;;;;;5.90;5.43;;;8.20;99.90;;;;;;5050481;28;20037;-67
2024/02/25 11:42:00;;;;;;;6.05;5.55;;;8.30;99.90;;;;;;5045583;28;20044;-67
2024/02/25 11:44:27;;;;;;;6.40;5.80;;;8.20;99.90;;;;;;5062595;28;20060;-67
2024/02/25 11:46:57;;;;;;;5.82;5.30;;;8.30;99.90;;;;;;5045202;28;20503;-67
2024/02/25 11:49:28;;;;;;;5.38;4.85;;;8.20;99.90;;;;;;5045568;28;20067;-67
2024/02/25 11:51:55;;;;;;;5.18;4.78;;;8.10;99.90;;;;;;5044823;28;20163;-67
2024/02/25 11:54:21;;;;;;;6.45;5.95;;;8.10;99.90;;;;;;5065882;28;20032;-67
2024/02/25 11:56:48;;;;;;;5.75;5.22;;;8.00;99.90;;;;;;5042763;28;20398;-67
2024/02/25 11:59:15;;;;;;;5.97;5.47;;;8.10;99.90;;;;;;5062884;28;20032;-67
2024/02/25 12:01:41;;;;;;;5.60;5.10;;;8.10;99.90;;;;;;5048962;28;20124;-67
2024/02/25 12:04:07;;;;;;;10.70;6.57;;;8.20;99.90;;;;;;5043721;28;20135;-67
2024/02/25 12:06:34;;;;;;;5.38;4.88;;;8.30;99.90;;;;;;5044166;28;20196;-67
2024/02/25 12:09:00;;;;;;;5.45;4.95;;;8.30;99.90;;;;;;5058547;28;20417;-67
2024/02/25 12:11:26;;;;;;;5.30;4.90;;;8.40;99.90;;;;;;5047510;28;20036;-67
2024/02/25 12:14:06;;;;;;;5.53;5.13;;;8.40;99.90;;;;;;5061537;28;20105;-67
2024/02/25 12:16:33;;;;;;;5.57;5.07;;;8.40;99.90;;;;;;5048147;28;20047;-67
2024/02/25 12:18:59;;;;;;;5.63;5.15;;;8.30;99.90;;;;;;5043329;28;20154;-67
2024/02/25 12:21:28;;;;;;;4.50;4.20;;;8.30;99.90;;;;;;5043839;28;20052;-67
2024/02/25 12:23:57;;;;;;;5.93;5.43;;;8.30;99.90;;;;;;5041305;28;20053;-67
2024/02/25 12:26:23;;;;;;;5.38;4.78;;;8.30;99.90;;;;;;5051366;28;20036;-67
2024/02/25 12:28:48;;;;;;;6.38;5.88;;;8.20;99.90;;;;;;5058055;28;20033;-67
2024/02/25 12:31:14;;;;;;;5.15;4.70;;;8.30;99.90;;;;;;5046098;28;20040;-67
2024/02/25 12:33:40;;;;;;;5.55;5.15;;;8.20;99.90;;;;;;5058654;28;20113;-67
2024/02/25 12:36:07;;;;;;;7.80;6.95;;;8.20;99.90;;;;;;5043783;28;20178;-67
2024/02/25 12:38:33;;;;;;;6.00;5.60;;;8.20;99.90;;;;;;5041864;28;20036;-67
2024/02/25 12:41:02;;;;;;;6.93;6.15;;;8.20;99.90;;;;;;5043370;28;20044;-67
2024/02/25 12:43:28;;;;;;;6.15;5.55;;;8.10;99.90;;;;;;5044136;28;20048;-67
2024/02/25 12:45:54;;;;;;;6.75;6.13;;;8.20;99.90;;;;;;5064796;28;20498;-67
2024/02/25 12:48:21;;;;;;;5.78;5.38;;;8.10;99.90;;;;;;5045092;28;20047;-67
2024/02/25 12:50:46;;;;;;;6.90;6.30;;;8.20;99.90;;;;;;5037037;28;20127;-67
2024/02/25 12:53:13;;;;;;;6.22;5.63;;;8.20;99.90;;;;;;5049783;28;20123;-67
2024/02/25 12:55:40;;;;;;;8.20;5.57;;;8.20;99.90;;;;;;5043945;28;20068;-67